createdAt,value
2018-05-06T00:00:12.974Z,2.70
2018-05-06T00:02:42.203Z,2.80
2018-05-06T00:05:11.427Z,2.93
2018-05-06T00:07:40.619Z,2.60
2018-05-06T00:10:10.491Z,2.87
2018-05-06T00:12:40.043Z,2.57
2018-05-06T00:15:09.613Z,2.67
2018-05-06T00:17:40.088Z,2.60
2018-05-06T00:20:09.596Z,3.73
2018-05-06T00:22:39.133Z,3.13
2018-05-06T00:25:08.720Z,2.83
2018-05-06T00:27:37.916Z,2.77
2018-05-06T00:30:07.427Z,2.83
2018-05-06T00:32:36.621Z,3.23
2018-05-06T00:35:06.163Z,2.97
2018-05-06T00:37:35.355Z,3.17
2018-05-06T00:40:04.695Z,3.83
2018-05-06T00:42:34.266Z,2.63
2018-05-06T00:45:03.773Z,2.90
2018-05-06T00:47:33.627Z,2.73
2018-05-06T00:50:03.223Z,2.73
2018-05-06T00:52:32.727Z,2.87
2018-05-06T00:55:02.235Z,3.10
2018-05-06T00:57:31.591Z,2.90
2018-05-06T01:00:00.779Z,3.23
2018-05-06T01:02:30.328Z,3.00
2018-05-06T01:04:59.837Z,3.00
2018-05-06T01:07:29.784Z,2.97
2018-05-06T01:09:59.371Z,3.10
2018-05-06T01:12:28.980Z,3.57
2018-05-06T01:14:58.240Z,3.30
2018-05-06T01:17:27.717Z,3.10
2018-05-06T01:19:57.022Z,3.10
2018-05-06T01:22:26.633Z,3.20
2018-05-06T01:24:56.056Z,3.20
2018-05-06T01:27:25.484Z,3.47
2018-05-06T01:29:55.031Z,3.30
2018-05-06T01:32:24.238Z,3.10
2018-05-06T01:34:53.687Z,3.30
2018-05-06T01:37:23.148Z,3.40
2018-05-06T01:39:52.610Z,3.20
2018-05-06T01:42:22.165Z,3.07
2018-05-06T01:44:51.702Z,3.50
2018-05-06T01:47:20.894Z,3.13
2018-05-06T01:49:50.514Z,3.33
2018-05-06T01:52:20.125Z,2.83
2018-05-06T01:54:49.551Z,3.03
2018-05-06T01:57:19.011Z,3.10
2018-05-06T01:59:48.623Z,3.03
2018-05-06T02:02:18.000Z,2.90
2018-05-06T02:04:47.191Z,3.57
2018-05-06T02:07:16.673Z,3.23
2018-05-06T02:09:46.663Z,3.60
2018-05-06T02:12:16.171Z,3.00
2018-05-06T02:14:46.129Z,3.00
2018-05-06T02:17:15.705Z,3.63
2018-05-06T02:19:45.442Z,2.80
2018-05-06T02:22:14.935Z,3.10
2018-05-06T02:24:44.157Z,3.13
2018-05-06T02:27:13.667Z,3.47
2018-05-06T02:29:42.865Z,3.07
2018-05-06T02:32:12.309Z,2.90
2018-05-06T02:34:41.760Z,2.80
2018-05-06T02:37:11.486Z,2.53
2018-05-06T02:39:40.952Z,2.47
2018-05-06T02:42:11.411Z,2.83
2018-05-06T02:44:40.914Z,2.87
2018-05-06T02:47:10.117Z,2.77
2018-05-06T02:49:39.756Z,2.97
2018-05-06T02:52:09.247Z,2.50
2018-05-06T02:54:38.848Z,2.90
2018-05-06T02:57:08.155Z,2.70
2018-05-06T02:59:37.763Z,2.67
2018-05-06T03:02:06.963Z,2.73
2018-05-06T03:04:36.491Z,2.57
2018-05-06T03:07:06.605Z,3.30
2018-05-06T03:09:36.111Z,3.07
2018-05-06T03:12:05.644Z,2.50
2018-05-06T03:14:35.231Z,2.67
2018-05-06T03:17:04.791Z,3.33
2018-05-06T03:19:34.347Z,2.27
2018-05-06T03:22:03.889Z,2.40
2018-05-06T03:24:34.044Z,2.40
2018-05-06T03:27:03.591Z,2.73
2018-05-06T03:29:33.043Z,2.87
2018-05-06T03:32:02.847Z,3.30
2018-05-06T03:34:32.328Z,2.70
2018-05-06T03:37:01.879Z,3.37
2018-05-06T03:39:31.432Z,3.03
2018-05-06T03:42:00.648Z,2.60
2018-05-06T03:44:29.847Z,2.87
2018-05-06T03:46:59.361Z,2.33
2018-05-06T03:49:28.880Z,2.83
2018-05-06T03:51:58.506Z,3.10
2018-05-06T03:54:28.094Z,2.40
2018-05-06T03:57:03.431Z,2.53
2018-05-06T03:59:38.979Z,2.80
2018-05-06T04:02:23.344Z,2.80
2018-05-06T04:04:52.831Z,2.67
2018-05-06T04:07:22.343Z,2.53
2018-05-06T04:09:51.783Z,3.17
2018-05-06T04:12:21.215Z,2.87
2018-05-06T04:14:50.772Z,3.10
2018-05-06T04:17:20.307Z,2.87
2018-05-06T04:19:49.899Z,3.20
2018-05-06T04:22:19.403Z,2.77
2018-05-06T04:24:48.907Z,3.03
2018-05-06T04:27:18.546Z,3.20
2018-05-06T04:29:47.995Z,3.13
2018-05-06T04:32:17.465Z,2.90
2018-05-06T04:34:46.980Z,3.20
2018-05-06T04:37:16.439Z,3.07
2018-05-06T04:39:46.675Z,3.30
2018-05-06T04:42:16.191Z,3.20
2018-05-06T04:44:46.422Z,3.10
2018-05-06T04:47:17.299Z,3.43
2018-05-06T04:49:46.894Z,3.77
2018-05-06T04:52:16.139Z,3.40
2018-05-06T04:54:45.605Z,3.60
2018-05-06T04:57:15.206Z,3.10
2018-05-06T04:59:44.547Z,3.70
2018-05-06T05:02:14.132Z,3.33
2018-05-06T05:04:43.959Z,3.43
2018-05-06T05:07:13.637Z,3.60
2018-05-06T05:09:43.169Z,3.47
2018-05-06T05:12:12.596Z,3.77
2018-05-06T05:14:42.085Z,3.60
2018-05-06T05:17:11.775Z,4.03
2018-05-06T05:19:41.308Z,3.80
2018-05-06T05:22:10.783Z,4.00
2018-05-06T05:24:40.300Z,3.53
2018-05-06T05:27:09.807Z,4.17
2018-05-06T05:29:39.948Z,3.70
2018-05-06T05:32:09.448Z,3.80
2018-05-06T05:34:38.967Z,4.10
2018-05-06T05:37:08.788Z,4.73
2018-05-06T05:39:38.271Z,4.17
2018-05-06T05:42:07.611Z,4.00
2018-05-06T05:44:37.087Z,4.23
2018-05-06T05:47:07.343Z,4.40
2018-05-06T05:49:36.850Z,4.20
2018-05-06T05:52:06.335Z,4.03
2018-05-06T05:54:35.851Z,4.37
2018-05-06T05:57:05.928Z,4.23
2018-05-06T05:59:35.371Z,4.87
2018-05-06T06:02:04.714Z,4.40
2018-05-06T06:04:34.879Z,4.60
2018-05-06T06:07:04.088Z,3.90
2018-05-06T06:09:33.543Z,4.10
2018-05-06T06:12:03.119Z,3.57
2018-05-06T06:14:32.636Z,3.80
2018-05-06T06:17:02.144Z,4.10
2018-05-06T06:19:31.798Z,3.97
2018-05-06T06:22:01.359Z,3.70
2018-05-06T06:24:30.940Z,3.67
2018-05-06T06:27:00.101Z,3.80
2018-05-06T06:29:29.609Z,3.83
2018-05-06T06:31:59.131Z,3.63
2018-05-06T06:34:28.327Z,3.77
2018-05-06T06:36:58.735Z,3.60
2018-05-06T06:39:28.231Z,3.73
2018-05-06T06:41:57.739Z,3.80
2018-05-06T06:44:26.934Z,3.93
2018-05-06T06:46:56.132Z,3.40
2018-05-06T06:49:25.875Z,3.73
2018-05-06T06:51:55.331Z,3.80
2018-05-06T06:54:25.188Z,3.50
2018-05-06T06:56:55.313Z,4.40
2018-05-06T06:59:24.551Z,3.93
2018-05-06T07:01:54.046Z,4.03
2018-05-06T07:04:23.576Z,4.10
2018-05-06T07:06:53.087Z,4.60
2018-05-06T07:09:22.283Z,3.73
2018-05-06T07:11:51.479Z,3.90
2018-05-06T07:14:20.948Z,3.70
2018-05-06T07:16:50.516Z,3.77
2018-05-06T07:19:20.408Z,3.90
2018-05-06T07:21:50.295Z,3.83
2018-05-06T07:24:19.720Z,3.97
2018-05-06T07:26:49.075Z,4.00
2018-05-06T07:29:18.519Z,3.80
2018-05-06T07:31:47.775Z,4.00
2018-05-06T07:34:16.972Z,3.50
2018-05-06T07:36:47.457Z,3.07
2018-05-06T07:39:16.889Z,3.80
2018-05-06T07:41:46.404Z,3.63
2018-05-06T07:44:15.892Z,3.10
2018-05-06T07:46:45.594Z,3.47
2018-05-06T07:49:15.030Z,3.70
2018-05-06T07:51:45.186Z,3.83
2018-05-06T07:54:14.631Z,3.60
2018-05-06T07:56:45.631Z,3.60
2018-05-06T07:59:15.185Z,3.90
2018-05-06T08:01:44.822Z,4.43
2018-05-06T08:04:14.247Z,3.70
2018-05-06T08:06:43.812Z,3.30
2018-05-06T08:09:13.455Z,3.73
2018-05-06T08:11:42.914Z,3.43
2018-05-06T08:14:12.448Z,3.80
2018-05-06T08:16:41.776Z,3.70
2018-05-06T08:19:12.830Z,3.40
2018-05-06T08:21:42.259Z,3.80
2018-05-06T08:24:11.811Z,3.40
2018-05-06T08:26:41.448Z,3.17
2018-05-06T08:29:10.931Z,2.97
2018-05-06T08:31:40.428Z,2.80
2018-05-06T08:34:10.282Z,3.60
2018-05-06T08:36:40.294Z,3.20
2018-05-06T08:39:09.755Z,3.77
2018-05-06T08:41:40.211Z,3.20
2018-05-06T08:44:09.761Z,3.33
2018-05-06T08:46:39.261Z,3.40
2018-05-06T08:49:08.536Z,3.60
2018-05-06T08:51:38.790Z,3.90
2018-05-06T08:54:08.379Z,3.40
2018-05-06T08:56:37.959Z,3.40
2018-05-06T08:59:07.522Z,3.50
2018-05-06T09:01:37.007Z,3.53
2018-05-06T09:04:06.295Z,3.37
2018-05-06T09:06:36.663Z,4.23
2018-05-06T09:09:08.400Z,5.13
2018-05-06T09:11:38.171Z,3.37
2018-05-06T09:14:08.291Z,3.07
2018-05-06T09:16:37.770Z,3.10
2018-05-06T09:19:06.966Z,3.53
2018-05-06T09:21:36.480Z,3.70
2018-05-06T09:24:05.671Z,3.60
2018-05-06T09:26:35.235Z,3.13
2018-05-06T09:29:04.879Z,3.10
2018-05-06T09:31:34.075Z,3.70
2018-05-06T09:34:03.592Z,3.40
2018-05-06T09:36:33.044Z,3.60
2018-05-06T09:39:02.236Z,3.30
2018-05-06T09:41:31.739Z,3.30
2018-05-06T09:44:01.320Z,3.20
2018-05-06T09:46:31.518Z,3.57
2018-05-06T09:49:00.718Z,3.30
2018-05-06T09:51:30.180Z,3.40
2018-05-06T09:53:59.691Z,3.73
2018-05-06T09:56:29.183Z,3.23
2018-05-06T09:58:58.399Z,3.27
2018-05-06T10:01:27.988Z,3.20
2018-05-06T10:03:57.392Z,3.10
2018-05-06T10:06:26.588Z,3.90
2018-05-06T10:08:56.103Z,3.37
2018-05-06T10:11:25.332Z,3.73
2018-05-06T10:13:54.532Z,3.07
2018-05-06T10:16:23.997Z,3.40
2018-05-06T10:18:53.524Z,3.10
2018-05-06T10:21:23.040Z,3.47
2018-05-06T10:23:52.545Z,3.53
2018-05-06T10:26:22.084Z,3.53
2018-05-06T10:28:52.507Z,3.23
2018-05-06T10:31:21.996Z,3.53
2018-05-06T10:33:51.427Z,3.27
2018-05-06T10:36:20.907Z,3.30
2018-05-06T10:38:50.442Z,3.30
2018-05-06T10:41:19.675Z,3.37
2018-05-06T10:43:48.863Z,3.63
2018-05-06T10:46:18.328Z,3.33
2018-05-06T10:48:47.839Z,3.37
2018-05-06T10:51:17.374Z,2.90
2018-05-06T10:53:46.885Z,3.50
2018-05-06T10:56:16.428Z,3.20
2018-05-06T10:58:46.491Z,3.67
2018-05-06T11:01:16.029Z,3.50
2018-05-06T11:03:45.507Z,3.07
2018-05-06T11:06:14.699Z,3.37
2018-05-06T11:08:44.229Z,3.50
2018-05-06T11:11:13.728Z,3.57
2018-05-06T11:13:43.151Z,3.33
2018-05-06T11:16:12.607Z,3.10
2018-05-06T11:18:41.872Z,3.60
2018-05-06T11:21:11.309Z,2.73
2018-05-06T11:23:40.503Z,3.40
2018-05-06T11:26:10.175Z,3.40
2018-05-06T11:28:39.680Z,3.50
2018-05-06T11:31:09.195Z,3.10
2018-05-06T11:33:38.824Z,3.20
2018-05-06T11:36:08.024Z,3.20
2018-05-06T11:38:37.276Z,3.10
2018-05-06T11:41:07.241Z,3.30
2018-05-06T11:43:37.464Z,3.00
2018-05-06T11:46:07.791Z,3.00
2018-05-06T11:48:37.291Z,3.23
2018-05-06T11:51:06.796Z,3.43
2018-05-06T11:53:36.304Z,3.70
2018-05-06T11:56:05.575Z,3.60
2018-05-06T11:58:35.145Z,4.20
2018-05-06T12:01:04.727Z,3.20
2018-05-06T12:03:34.336Z,3.30
2018-05-06T12:06:04.591Z,3.30
2018-05-06T12:08:34.047Z,3.20
2018-05-06T12:11:03.239Z,3.23
2018-05-06T12:13:32.783Z,3.10
2018-05-06T12:16:02.246Z,3.77
2018-05-06T12:18:31.671Z,3.07
2018-05-06T12:21:01.239Z,3.60
2018-05-06T12:23:30.716Z,3.90
2018-05-06T12:26:00.229Z,3.30
2018-05-06T12:28:29.740Z,3.30
2018-05-06T12:30:59.160Z,3.50
2018-05-06T12:33:28.415Z,3.23
2018-05-06T12:35:57.881Z,3.50
2018-05-06T12:38:27.364Z,3.50
2018-05-06T12:40:56.871Z,3.23
2018-05-06T12:43:26.503Z,3.30
2018-05-06T12:45:55.991Z,2.97
2018-05-06T12:48:25.425Z,4.10
2018-05-06T12:50:54.699Z,3.43
2018-05-06T12:53:24.216Z,3.40
2018-05-06T12:55:53.667Z,3.37
2018-05-06T12:58:23.264Z,3.40
2018-05-06T13:00:52.767Z,3.00
2018-05-06T13:03:21.980Z,3.40
2018-05-06T13:05:51.447Z,3.15
2018-05-06T13:08:20.987Z,3.90
2018-05-06T13:10:50.296Z,3.20
2018-05-06T13:13:19.775Z,3.67
2018-05-06T13:15:49.322Z,3.40
2018-05-06T13:18:18.974Z,3.65
2018-05-06T13:20:48.611Z,3.35
2018-05-06T13:23:18.120Z,3.50
2018-05-06T13:25:47.599Z,3.60
2018-05-06T13:28:16.796Z,3.60
2018-05-06T13:30:47.156Z,3.78
2018-05-06T13:33:16.683Z,3.05
2018-05-06T13:35:45.956Z,3.08
2018-05-06T13:38:15.505Z,3.30
2018-05-06T13:40:44.786Z,3.40
2018-05-06T13:43:14.292Z,2.97
2018-05-06T13:45:43.573Z,2.80
2018-05-06T13:48:13.031Z,2.67
2018-05-06T13:50:42.243Z,3.10
2018-05-06T13:53:11.713Z,3.30
2018-05-06T13:55:40.968Z,3.12
2018-05-06T13:58:10.541Z,2.92
2018-05-06T14:00:39.807Z,3.12
2018-05-06T14:03:09.239Z,3.10
2018-05-06T14:05:38.777Z,3.00
2018-05-06T14:08:08.359Z,2.80
2018-05-06T14:10:37.872Z,2.47
2018-05-06T14:13:07.233Z,2.37
2018-05-06T14:15:36.695Z,2.70
2018-05-06T14:18:06.195Z,2.65
2018-05-06T14:20:35.728Z,2.78
2018-05-06T14:23:04.924Z,2.28
2018-05-06T14:25:34.122Z,2.17
2018-05-06T14:28:03.339Z,2.43
2018-05-06T14:30:32.823Z,2.30
2018-05-06T14:33:02.327Z,2.60
2018-05-06T14:35:31.933Z,2.40
2018-05-06T14:38:01.184Z,2.15
2018-05-06T14:40:30.727Z,2.40
2018-05-06T14:42:59.924Z,2.22
2018-05-06T14:45:29.122Z,2.30
2018-05-06T14:48:04.103Z,2.10
2018-05-06T14:50:33.319Z,2.30
2018-05-06T14:53:02.517Z,2.33
2018-05-06T14:55:32.000Z,2.40
2018-05-06T14:58:02.532Z,2.83
2018-05-06T15:00:32.068Z,2.90
2018-05-06T15:03:01.548Z,2.42
2018-05-06T15:05:31.355Z,2.37
2018-05-06T15:08:00.879Z,2.60
2018-05-06T15:10:30.355Z,2.28
2018-05-06T15:12:59.921Z,2.00
2018-05-06T15:15:29.507Z,2.40
2018-05-06T15:17:59.011Z,1.90
2018-05-06T15:20:28.449Z,2.40
2018-05-06T15:22:58.603Z,2.15
2018-05-06T15:25:28.899Z,1.90
2018-05-06T15:27:58.479Z,1.87
2018-05-06T15:30:28.639Z,2.30
2018-05-06T15:32:58.113Z,2.47
2018-05-06T15:35:27.311Z,2.60
2018-05-06T15:37:56.752Z,2.12
2018-05-06T15:40:26.019Z,2.00
2018-05-06T15:42:55.572Z,2.47
2018-05-06T15:45:25.664Z,2.47
2018-05-06T15:47:55.199Z,2.25
2018-05-06T15:50:24.867Z,2.10
2018-05-06T15:52:53.927Z,2.10
2018-05-06T15:55:23.897Z,2.25
2018-05-06T15:57:54.228Z,2.35
2018-05-06T16:00:23.738Z,2.05
2018-05-06T16:02:58.950Z,2.00
2018-05-06T16:05:28.494Z,1.98
2018-05-06T16:07:58.024Z,2.00
2018-05-06T16:10:27.534Z,2.65
2018-05-06T16:12:57.003Z,1.90
2018-05-06T16:15:26.272Z,2.03
2018-05-06T16:17:55.756Z,1.80
2018-05-06T16:20:25.239Z,2.15
2018-05-06T16:22:54.475Z,2.08
2018-05-06T16:25:23.916Z,1.92
2018-05-06T16:27:53.374Z,1.70
2018-05-06T16:30:22.862Z,1.75
2018-05-06T16:32:52.473Z,1.60
2018-05-06T16:35:21.983Z,2.00
2018-05-06T16:37:51.600Z,1.83
2018-05-06T16:40:21.035Z,2.15
2018-05-06T16:42:50.641Z,2.00
2018-05-06T16:45:20.123Z,1.92
2018-05-06T16:47:49.327Z,1.70
2018-05-06T16:50:18.864Z,1.83
2018-05-06T16:52:48.441Z,1.95
2018-05-06T16:55:17.928Z,1.77
2018-05-06T16:57:47.421Z,1.70
2018-05-06T17:00:16.719Z,2.10
2018-05-06T17:02:46.275Z,2.00
2018-05-06T17:05:15.815Z,1.77
2018-05-06T17:07:46.168Z,1.70
2018-05-06T17:10:15.929Z,1.80
2018-05-06T17:12:45.468Z,1.60
2018-05-06T17:15:15.723Z,1.60
2018-05-06T17:17:45.291Z,1.95
2018-05-06T17:20:14.755Z,1.80
2018-05-06T17:22:44.231Z,1.63
2018-05-06T17:25:14.972Z,1.50
2018-05-06T17:27:44.567Z,2.00
2018-05-06T17:30:14.100Z,1.70
2018-05-06T17:32:43.583Z,1.80
2018-05-06T17:35:12.795Z,1.80
2018-05-06T17:37:42.293Z,2.00
2018-05-06T17:40:12.459Z,1.83
2018-05-06T17:42:42.535Z,1.87
2018-05-06T17:45:12.259Z,1.80
2018-05-06T17:47:41.458Z,2.00
2018-05-06T17:50:11.095Z,1.80
2018-05-06T17:52:40.296Z,2.00
2018-05-06T17:55:11.508Z,1.80
2018-05-06T17:57:42.164Z,2.07
2018-05-06T18:00:12.404Z,2.20
2018-05-06T18:02:41.885Z,2.17
2018-05-06T18:05:11.156Z,1.83
2018-05-06T18:07:40.677Z,2.10
2018-05-06T18:10:09.951Z,2.03
2018-05-06T18:12:39.396Z,2.97
2018-05-06T18:15:08.955Z,2.43
2018-05-06T18:17:38.508Z,1.97
2018-05-06T18:20:08.219Z,2.00
2018-05-06T18:22:37.848Z,1.90
2018-05-06T18:25:07.799Z,1.80
2018-05-06T18:27:37.002Z,1.83
2018-05-06T18:30:06.690Z,1.83
2018-05-06T18:32:36.967Z,1.90
2018-05-06T18:35:07.527Z,2.17
2018-05-06T18:37:36.953Z,1.87
2018-05-06T18:40:07.799Z,2.03
2018-05-06T18:42:37.049Z,2.10
2018-05-06T18:45:08.165Z,2.47
2018-05-06T18:47:37.653Z,2.20
2018-05-06T18:50:07.811Z,2.10
2018-05-06T18:52:37.327Z,2.27
2018-05-06T18:55:06.591Z,2.20
2018-05-06T18:57:36.999Z,2.20
2018-05-06T19:00:06.548Z,2.30
2018-05-06T19:02:36.084Z,2.00
2018-05-06T19:05:07.951Z,2.20
2018-05-06T19:07:38.256Z,2.30
2018-05-06T19:10:07.443Z,2.67
2018-05-06T19:12:37.257Z,2.30
2018-05-06T19:15:06.714Z,2.17
2018-05-06T19:17:37.527Z,2.30
2018-05-06T19:20:07.713Z,2.50
2018-05-06T19:22:37.695Z,2.43
2018-05-06T19:25:07.219Z,2.63
2018-05-06T19:27:38.461Z,2.10
2018-05-06T19:30:08.007Z,2.20
2018-05-06T19:32:37.504Z,2.23
2018-05-06T19:35:06.952Z,2.37
2018-05-06T19:37:37.219Z,2.47
2018-05-06T19:40:07.548Z,2.67
2018-05-06T19:42:36.771Z,2.23
2018-05-06T19:45:06.903Z,2.20
2018-05-06T19:47:37.207Z,2.57
2018-05-06T19:50:06.729Z,2.20
2018-05-06T19:52:36.267Z,2.17
2018-05-06T19:55:06.959Z,2.40
2018-05-06T19:57:36.424Z,2.37
2018-05-06T20:00:06.179Z,2.70
2018-05-06T20:02:35.700Z,2.73
2018-05-06T20:05:05.205Z,2.70
2018-05-06T20:07:34.738Z,2.40
2018-05-06T20:10:04.840Z,2.50
2018-05-06T20:12:34.306Z,2.83
2018-05-06T20:15:03.849Z,2.30
2018-05-06T20:17:33.359Z,2.90
2018-05-06T20:20:03.843Z,2.00
2018-05-06T20:22:33.078Z,2.63
2018-05-06T20:25:02.599Z,2.73
2018-05-06T20:27:31.819Z,2.70
2018-05-06T20:30:01.011Z,2.80
2018-05-06T20:32:30.518Z,3.07
2018-05-06T20:35:00.131Z,2.43
2018-05-06T20:37:29.519Z,2.53
2018-05-06T20:39:58.969Z,2.63
2018-05-06T20:42:28.479Z,2.67
2018-05-06T20:44:57.955Z,2.67
2018-05-06T20:47:27.495Z,2.70
2018-05-06T20:49:56.996Z,2.80
2018-05-06T20:52:26.595Z,2.83
2018-05-06T20:54:56.102Z,2.27
2018-05-06T20:57:25.715Z,3.07
2018-05-06T20:59:55.251Z,3.00
2018-05-06T21:02:24.827Z,2.60
2018-05-06T21:04:54.366Z,2.80
2018-05-06T21:07:23.881Z,2.47
2018-05-06T21:09:53.360Z,3.00
2018-05-06T21:12:23.779Z,2.80
2018-05-06T21:14:53.303Z,2.37
2018-05-06T21:17:23.419Z,2.77
2018-05-06T21:19:53.568Z,3.57
2018-05-06T21:22:23.180Z,3.00
2018-05-06T21:24:52.650Z,3.00
2018-05-06T21:27:22.987Z,2.83
2018-05-06T21:29:52.187Z,2.80
2018-05-06T21:32:21.710Z,3.30
2018-05-06T21:34:51.959Z,2.73
2018-05-06T21:37:21.480Z,3.07
2018-05-06T21:39:50.972Z,2.87
2018-05-06T21:42:20.659Z,2.60
2018-05-06T21:44:51.302Z,2.77
2018-05-06T21:47:21.545Z,3.07
2018-05-06T21:49:51.443Z,2.77
2018-05-06T21:52:21.184Z,3.23
2018-05-06T21:54:50.405Z,3.60
2018-05-06T21:57:21.119Z,2.70
2018-05-06T21:59:51.651Z,3.03
2018-05-06T22:02:20.853Z,2.93
2018-05-06T22:04:50.439Z,2.40
2018-05-06T22:07:19.949Z,2.93
2018-05-06T22:09:49.743Z,2.47
2018-05-06T22:12:19.707Z,2.90
2018-05-06T22:14:50.351Z,3.10
2018-05-06T22:17:20.468Z,2.80
2018-05-06T22:19:49.988Z,2.80
2018-05-06T22:22:19.460Z,3.00
2018-05-06T22:24:48.684Z,2.90
2018-05-06T22:27:18.099Z,2.97
2018-05-06T22:29:47.543Z,3.40
2018-05-06T22:32:17.079Z,3.20
2018-05-06T22:34:46.591Z,3.03
2018-05-06T22:37:16.047Z,2.70
2018-05-06T22:39:45.537Z,3.00
2018-05-06T22:42:14.924Z,2.80
2018-05-06T22:44:44.142Z,2.80
2018-05-06T22:47:13.624Z,2.63
2018-05-06T22:49:43.984Z,2.70
2018-05-06T22:52:13.183Z,2.50
2018-05-06T22:54:42.763Z,2.70
2018-05-06T22:57:12.584Z,2.53
2018-05-06T22:59:41.854Z,2.77
2018-05-06T23:02:11.424Z,2.70
2018-05-06T23:04:40.932Z,2.50
2018-05-06T23:07:10.147Z,2.87
2018-05-06T23:09:39.644Z,2.80
2018-05-06T23:12:09.127Z,2.63
2018-05-06T23:14:38.647Z,2.60
2018-05-06T23:17:07.839Z,2.77
2018-05-06T23:19:37.052Z,2.53
2018-05-06T23:22:06.256Z,2.87
2018-05-06T23:24:35.755Z,2.80
2018-05-06T23:27:04.952Z,3.13
2018-05-06T23:29:34.146Z,3.03
2018-05-06T23:32:03.667Z,3.10
2018-05-06T23:34:32.865Z,2.93
2018-05-06T23:37:02.402Z,2.83
2018-05-06T23:39:31.855Z,2.80
2018-05-06T23:42:01.808Z,2.77
2018-05-06T23:44:31.255Z,3.00
2018-05-06T23:47:00.642Z,2.73
2018-05-06T23:49:30.178Z,2.73
2018-05-06T23:51:59.376Z,2.90
2018-05-06T23:54:28.939Z,3.00
2018-05-06T23:56:58.141Z,2.77
2018-05-06T23:59:28.505Z,2.97
